sensor_id;sensor_type;location;lat;lon;timestamp;P1;durP1;ratioP1;P2;durP2;ratioP2
18340;SDS011;9296;48.084;16.352;2022-08-19T00:01:19;7.32;;;3.40;;
18340;SDS011;9296;48.084;16.352;2022-08-19T00:03:46;10.57;;;3.00;;
18340;SDS011;9296;48.084;16.352;2022-08-19T00:06:14;6.15;;;3.25;;
18340;SDS011;9296;48.084;16.352;2022-08-19T00:08:42;7.72;;;3.20;;
18340;SDS011;9296;48.084;16.352;2022-08-19T00:11:10;9.18;;;3.40;;
18340;SDS011;9296;48.084;16.352;2022-08-19T00:13:39;10.23;;;3.40;;
18340;SDS011;9296;48.084;16.352;2022-08-19T00:16:06;9.98;;;3.53;;
18340;SDS011;9296;48.084;16.352;2022-08-19T00:18:34;8.65;;;3.45;;
18340;SDS011;9296;48.084;16.352;2022-08-19T00:21:01;8.38;;;3.13;;
18340;SDS011;9296;48.084;16.352;2022-08-19T00:23:34;10.98;;;3.20;;
18340;SDS011;9296;48.084;16.352;2022-08-19T00:26:02;8.57;;;3.50;;
18340;SDS011;9296;48.084;16.352;2022-08-19T00:28:29;6.50;;;3.45;;
18340;SDS011;9296;48.084;16.352;2022-08-19T00:30:58;7.55;;;3.50;;
18340;SDS011;9296;48.084;16.352;2022-08-19T00:33:26;7.95;;;3.58;;
18340;SDS011;9296;48.084;16.352;2022-08-19T00:35:56;13.30;;;3.53;;
18340;SDS011;9296;48.084;16.352;2022-08-19T00:38:23;9.15;;;3.28;;
18340;SDS011;9296;48.084;16.352;2022-08-19T00:40:51;10.60;;;3.72;;
18340;SDS011;9296;48.084;16.352;2022-08-19T00:43:19;7.72;;;3.67;;
18340;SDS011;9296;48.084;16.352;2022-08-19T00:45:47;8.05;;;3.53;;
18340;SDS011;9296;48.084;16.352;2022-08-19T00:48:16;9.23;;;3.70;;
18340;SDS011;9296;48.084;16.352;2022-08-19T00:50:44;7.90;;;3.65;;
18340;SDS011;9296;48.084;16.352;2022-08-19T00:53:12;8.70;;;3.22;;
18340;SDS011;9296;48.084;16.352;2022-08-19T00:55:42;5.00;;;2.88;;
18340;SDS011;9296;48.084;16.352;2022-08-19T00:58:12;7.93;;;3.45;;
18340;SDS011;9296;48.084;16.352;2022-08-19T01:00:40;7.70;;;3.50;;
18340;SDS011;9296;48.084;16.352;2022-08-19T01:03:09;10.20;;;3.72;;
18340;SDS011;9296;48.084;16.352;2022-08-19T01:05:38;11.88;;;3.88;;
18340;SDS011;9296;48.084;16.352;2022-08-19T01:08:06;5.90;;;3.50;;
18340;SDS011;9296;48.084;16.352;2022-08-19T01:10:36;9.13;;;3.92;;
18340;SDS011;9296;48.084;16.352;2022-08-19T01:13:05;10.02;;;3.65;;
18340;SDS011;9296;48.084;16.352;2022-08-19T01:15:32;9.45;;;3.60;;
18340;SDS011;9296;48.084;16.352;2022-08-19T01:18:01;8.48;;;3.80;;
18340;SDS011;9296;48.084;16.352;2022-08-19T01:20:31;8.80;;;4.05;;
18340;SDS011;9296;48.084;16.352;2022-08-19T01:23:01;10.80;;;3.70;;
18340;SDS011;9296;48.084;16.352;2022-08-19T01:25:29;12.07;;;4.28;;
18340;SDS011;9296;48.084;16.352;2022-08-19T01:28:04;10.07;;;3.45;;
18340;SDS011;9296;48.084;16.352;2022-08-19T01:30:33;8.38;;;3.90;;
18340;SDS011;9296;48.084;16.352;2022-08-19T01:33:01;12.50;;;3.53;;
18340;SDS011;9296;48.084;16.352;2022-08-19T01:35:30;8.68;;;3.75;;
18340;SDS011;9296;48.084;16.352;2022-08-19T01:37:58;6.18;;;3.78;;
18340;SDS011;9296;48.084;16.352;2022-08-19T01:40:29;7.28;;;4.10;;
18340;SDS011;9296;48.084;16.352;2022-08-19T01:42:57;8.07;;;3.78;;
18340;SDS011;9296;48.084;16.352;2022-08-19T01:45:25;7.68;;;3.95;;
18340;SDS011;9296;48.084;16.352;2022-08-19T01:47:53;11.00;;;3.90;;
18340;SDS011;9296;48.084;16.352;2022-08-19T01:50:20;7.47;;;3.60;;
18340;SDS011;9296;48.084;16.352;2022-08-19T01:52:47;7.78;;;4.07;;
18340;SDS011;9296;48.084;16.352;2022-08-19T01:55:16;7.78;;;3.55;;
18340;SDS011;9296;48.084;16.352;2022-08-19T01:57:46;5.75;;;3.60;;
18340;SDS011;9296;48.084;16.352;2022-08-19T02:00:15;9.85;;;3.67;;
18340;SDS011;9296;48.084;16.352;2022-08-19T02:02:43;10.05;;;3.95;;
18340;SDS011;9296;48.084;16.352;2022-08-19T02:05:11;7.75;;;4.10;;
18340;SDS011;9296;48.084;16.352;2022-08-19T02:07:38;9.00;;;4.25;;
18340;SDS011;9296;48.084;16.352;2022-08-19T02:10:07;9.80;;;4.55;;
18340;SDS011;9296;48.084;16.352;2022-08-19T02:12:35;10.95;;;4.25;;
18340;SDS011;9296;48.084;16.352;2022-08-19T02:15:04;9.68;;;4.72;;
18340;SDS011;9296;48.084;16.352;2022-08-19T02:17:34;11.30;;;4.70;;
18340;SDS011;9296;48.084;16.352;2022-08-19T02:20:01;10.40;;;4.20;;
18340;SDS011;9296;48.084;16.352;2022-08-19T02:22:28;7.47;;;3.95;;
18340;SDS011;9296;48.084;16.352;2022-08-19T02:24:56;9.63;;;4.32;;
18340;SDS011;9296;48.084;16.352;2022-08-19T02:27:23;8.38;;;4.00;;
18340;SDS011;9296;48.084;16.352;2022-08-19T02:29:51;9.25;;;3.75;;
18340;SDS011;9296;48.084;16.352;2022-08-19T02:32:20;7.72;;;4.03;;
18340;SDS011;9296;48.084;16.352;2022-08-19T02:34:47;7.28;;;4.03;;
18340;SDS011;9296;48.084;16.352;2022-08-19T02:37:15;7.20;;;4.03;;
18340;SDS011;9296;48.084;16.352;2022-08-19T02:39:56;8.75;;;3.60;;
18340;SDS011;9296;48.084;16.352;2022-08-19T02:42:23;10.00;;;3.70;;
18340;SDS011;9296;48.084;16.352;2022-08-19T02:44:51;8.63;;;3.75;;
18340;SDS011;9296;48.084;16.352;2022-08-19T02:47:21;8.43;;;3.50;;
18340;SDS011;9296;48.084;16.352;2022-08-19T02:49:49;9.90;;;3.55;;
18340;SDS011;9296;48.084;16.352;2022-08-19T02:52:16;12.93;;;4.13;;
18340;SDS011;9296;48.084;16.352;2022-08-19T02:54:43;11.98;;;3.70;;
18340;SDS011;9296;48.084;16.352;2022-08-19T02:57:10;11.27;;;3.75;;
18340;SDS011;9296;48.084;16.352;2022-08-19T02:59:38;13.73;;;3.58;;
18340;SDS011;9296;48.084;16.352;2022-08-19T03:02:05;10.80;;;3.65;;
18340;SDS011;9296;48.084;16.352;2022-08-19T03:04:33;10.13;;;3.47;;
18340;SDS011;9296;48.084;16.352;2022-08-19T03:07:01;10.77;;;3.90;;
18340;SDS011;9296;48.084;16.352;2022-08-19T03:09:28;10.20;;;3.90;;
18340;SDS011;9296;48.084;16.352;2022-08-19T03:11:56;10.63;;;3.80;;
18340;SDS011;9296;48.084;16.352;2022-08-19T03:14:23;10.70;;;3.90;;
18340;SDS011;9296;48.084;16.352;2022-08-19T03:16:51;7.57;;;4.13;;
18340;SDS011;9296;48.084;16.352;2022-08-19T03:19:19;10.50;;;4.57;;
18340;SDS011;9296;48.084;16.352;2022-08-19T03:21:48;12.15;;;4.35;;
18340;SDS011;9296;48.084;16.352;2022-08-19T03:24:16;11.02;;;4.10;;
18340;SDS011;9296;48.084;16.352;2022-08-19T03:26:46;12.15;;;4.45;;
18340;SDS011;9296;48.084;16.352;2022-08-19T03:29:13;10.43;;;4.55;;
18340;SDS011;9296;48.084;16.352;2022-08-19T03:31:42;8.77;;;3.92;;
18340;SDS011;9296;48.084;16.352;2022-08-19T03:34:10;10.32;;;4.10;;
18340;SDS011;9296;48.084;16.352;2022-08-19T03:36:37;10.13;;;4.32;;
18340;SDS011;9296;48.084;16.352;2022-08-19T03:39:06;14.95;;;4.60;;
18340;SDS011;9296;48.084;16.352;2022-08-19T03:41:35;14.25;;;4.70;;
18340;SDS011;9296;48.084;16.352;2022-08-19T03:44:03;8.13;;;4.28;;
18340;SDS011;9296;48.084;16.352;2022-08-19T03:46:32;8.27;;;4.32;;
18340;SDS011;9296;48.084;16.352;2022-08-19T03:49:01;8.57;;;4.40;;
18340;SDS011;9296;48.084;16.352;2022-08-19T03:51:33;9.88;;;4.68;;
18340;SDS011;9296;48.084;16.352;2022-08-19T03:54:04;10.40;;;4.75;;
18340;SDS011;9296;48.084;16.352;2022-08-19T03:56:33;12.18;;;4.63;;
18340;SDS011;9296;48.084;16.352;2022-08-19T03:59:01;8.90;;;4.78;;
18340;SDS011;9296;48.084;16.352;2022-08-19T04:01:28;7.88;;;4.85;;
18340;SDS011;9296;48.084;16.352;2022-08-19T04:03:56;7.82;;;4.55;;
18340;SDS011;9296;48.084;16.352;2022-08-19T04:06:25;10.65;;;5.03;;
18340;SDS011;9296;48.084;16.352;2022-08-19T04:08:53;9.10;;;4.78;;
18340;SDS011;9296;48.084;16.352;2022-08-19T04:11:21;9.00;;;4.70;;
18340;SDS011;9296;48.084;16.352;2022-08-19T04:13:50;8.52;;;4.95;;
18340;SDS011;9296;48.084;16.352;2022-08-19T04:16:18;9.23;;;5.07;;
18340;SDS011;9296;48.084;16.352;2022-08-19T04:18:45;8.80;;;4.68;;
18340;SDS011;9296;48.084;16.352;2022-08-19T04:21:15;11.88;;;4.97;;
18340;SDS011;9296;48.084;16.352;2022-08-19T04:23:42;9.43;;;4.45;;
18340;SDS011;9296;48.084;16.352;2022-08-19T04:26:11;8.77;;;5.03;;
18340;SDS011;9296;48.084;16.352;2022-08-19T04:28:56;14.68;;;4.80;;
18340;SDS011;9296;48.084;16.352;2022-08-19T04:31:23;8.88;;;4.38;;
18340;SDS011;9296;48.084;16.352;2022-08-19T04:33:52;9.07;;;4.53;;
18340;SDS011;9296;48.084;16.352;2022-08-19T04:36:19;9.73;;;5.28;;
18340;SDS011;9296;48.084;16.352;2022-08-19T04:38:47;13.85;;;5.30;;
18340;SDS011;9296;48.084;16.352;2022-08-19T04:41:14;10.07;;;5.03;;
18340;SDS011;9296;48.084;16.352;2022-08-19T04:44:01;12.25;;;4.90;;
18340;SDS011;9296;48.084;16.352;2022-08-19T04:46:28;10.18;;;4.90;;
18340;SDS011;9296;48.084;16.352;2022-08-19T04:48:57;8.30;;;4.97;;
18340;SDS011;9296;48.084;16.352;2022-08-19T04:51:24;15.68;;;5.88;;
18340;SDS011;9296;48.084;16.352;2022-08-19T04:53:52;10.38;;;5.43;;
18340;SDS011;9296;48.084;16.352;2022-08-19T04:56:20;11.30;;;5.75;;
18340;SDS011;9296;48.084;16.352;2022-08-19T04:59:07;8.27;;;5.60;;
18340;SDS011;9296;48.084;16.352;2022-08-19T05:01:36;9.02;;;5.90;;
18340;SDS011;9296;48.084;16.352;2022-08-19T05:04:04;10.90;;;5.68;;
18340;SDS011;9296;48.084;16.352;2022-08-19T05:06:31;9.32;;;6.18;;
18340;SDS011;9296;48.084;16.352;2022-08-19T05:08:59;10.77;;;6.47;;
18340;SDS011;9296;48.084;16.352;2022-08-19T05:11:28;11.60;;;6.60;;
18340;SDS011;9296;48.084;16.352;2022-08-19T05:13:55;8.90;;;6.43;;
18340;SDS011;9296;48.084;16.352;2022-08-19T05:16:25;8.40;;;6.32;;
18340;SDS011;9296;48.084;16.352;2022-08-19T05:18:52;12.63;;;6.70;;
18340;SDS011;9296;48.084;16.352;2022-08-19T05:21:51;10.30;;;6.15;;
18340;SDS011;9296;48.084;16.352;2022-08-19T05:24:36;8.43;;;5.57;;
18340;SDS011;9296;48.084;16.352;2022-08-19T05:27:04;9.82;;;5.55;;
18340;SDS011;9296;48.084;16.352;2022-08-19T05:29:32;15.13;;;5.38;;
18340;SDS011;9296;48.084;16.352;2022-08-19T05:32:02;9.13;;;5.00;;
18340;SDS011;9296;48.084;16.352;2022-08-19T05:34:30;15.43;;;5.47;;
18340;SDS011;9296;48.084;16.352;2022-08-19T05:36:58;13.05;;;5.72;;
18340;SDS011;9296;48.084;16.352;2022-08-19T05:39:27;13.85;;;5.70;;
18340;SDS011;9296;48.084;16.352;2022-08-19T05:41:55;12.27;;;5.53;;
18340;SDS011;9296;48.084;16.352;2022-08-19T05:44:23;9.85;;;5.25;;
18340;SDS011;9296;48.084;16.352;2022-08-19T05:46:51;10.60;;;5.00;;
18340;SDS011;9296;48.084;16.352;2022-08-19T05:49:21;13.15;;;6.15;;
18340;SDS011;9296;48.084;16.352;2022-08-19T05:51:49;10.82;;;5.40;;
18340;SDS011;9296;48.084;16.352;2022-08-19T05:54:17;9.40;;;5.95;;
18340;SDS011;9296;48.084;16.352;2022-08-19T05:56:45;9.13;;;6.22;;
18340;SDS011;9296;48.084;16.352;2022-08-19T05:59:14;11.68;;;6.35;;
18340;SDS011;9296;48.084;16.352;2022-08-19T06:01:43;13.77;;;6.70;;
18340;SDS011;9296;48.084;16.352;2022-08-19T06:04:11;8.20;;;6.43;;
18340;SDS011;9296;48.084;16.352;2022-08-19T06:06:40;10.20;;;6.47;;
18340;SDS011;9296;48.084;16.352;2022-08-19T06:09:08;7.35;;;5.90;;
18340;SDS011;9296;48.084;16.352;2022-08-19T06:11:36;8.13;;;6.15;;
18340;SDS011;9296;48.084;16.352;2022-08-19T06:14:05;9.60;;;7.10;;
18340;SDS011;9296;48.084;16.352;2022-08-19T06:16:33;12.60;;;7.03;;
18340;SDS011;9296;48.084;16.352;2022-08-19T06:19:02;11.60;;;6.43;;
18340;SDS011;9296;48.084;16.352;2022-08-19T06:21:31;9.23;;;6.93;;
18340;SDS011;9296;48.084;16.352;2022-08-19T06:24:00;10.40;;;6.85;;
18340;SDS011;9296;48.084;16.352;2022-08-19T06:26:28;8.90;;;7.10;;
18340;SDS011;9296;48.084;16.352;2022-08-19T06:28:56;9.20;;;7.10;;
18340;SDS011;9296;48.084;16.352;2022-08-19T06:31:24;8.55;;;7.50;;
18340;SDS011;9296;48.084;16.352;2022-08-19T06:33:52;8.45;;;7.40;;
18340;SDS011;9296;48.084;16.352;2022-08-19T06:36:20;8.10;;;7.30;;
18340;SDS011;9296;48.084;16.352;2022-08-19T06:38:56;8.35;;;7.20;;
18340;SDS011;9296;48.084;16.352;2022-08-19T06:41:25;8.40;;;6.80;;
18340;SDS011;9296;48.084;16.352;2022-08-19T06:43:53;9.88;;;7.10;;
18340;SDS011;9296;48.084;16.352;2022-08-19T06:46:20;7.93;;;6.80;;
18340;SDS011;9296;48.084;16.352;2022-08-19T06:48:48;8.68;;;6.95;;
18340;SDS011;9296;48.084;16.352;2022-08-19T06:51:18;9.70;;;6.47;;
18340;SDS011;9296;48.084;16.352;2022-08-19T06:53:45;9.05;;;6.30;;
18340;SDS011;9296;48.084;16.352;2022-08-19T06:56:13;8.18;;;6.20;;
18340;SDS011;9296;48.084;16.352;2022-08-19T07:01:47;12.05;;;6.00;;
18340;SDS011;9296;48.084;16.352;2022-08-19T07:04:15;7.20;;;5.85;;
18340;SDS011;9296;48.084;16.352;2022-08-19T07:06:43;6.68;;;5.68;;
18340;SDS011;9296;48.084;16.352;2022-08-19T07:09:11;8.43;;;6.00;;
18340;SDS011;9296;48.084;16.352;2022-08-19T07:11:41;6.68;;;5.78;;
18340;SDS011;9296;48.084;16.352;2022-08-19T07:16:57;7.95;;;5.90;;
18340;SDS011;9296;48.084;16.352;2022-08-19T07:19:25;6.75;;;5.85;;
18340;SDS011;9296;48.084;16.352;2022-08-19T07:21:52;6.20;;;5.35;;
18340;SDS011;9296;48.084;16.352;2022-08-19T07:24:22;7.30;;;5.60;;
18340;SDS011;9296;48.084;16.352;2022-08-19T07:26:50;6.00;;;5.40;;
18340;SDS011;9296;48.084;16.352;2022-08-19T07:29:17;5.72;;;5.22;;
18340;SDS011;9296;48.084;16.352;2022-08-19T07:31:48;7.25;;;5.18;;
18340;SDS011;9296;48.084;16.352;2022-08-19T07:34:17;6.03;;;5.00;;
18340;SDS011;9296;48.084;16.352;2022-08-19T07:36:44;5.63;;;5.00;;
18340;SDS011;9296;48.084;16.352;2022-08-19T07:39:13;5.35;;;4.80;;
18340;SDS011;9296;48.084;16.352;2022-08-19T07:41:40;6.25;;;5.10;;
18340;SDS011;9296;48.084;16.352;2022-08-19T07:44:08;5.20;;;4.80;;
18340;SDS011;9296;48.084;16.352;2022-08-19T07:46:36;6.78;;;5.07;;
18340;SDS011;9296;48.084;16.352;2022-08-19T07:49:05;5.93;;;4.90;;
18340;SDS011;9296;48.084;16.352;2022-08-19T07:51:34;6.18;;;4.63;;
18340;SDS011;9296;48.084;16.352;2022-08-19T07:54:01;5.60;;;5.10;;
18340;SDS011;9296;48.084;16.352;2022-08-19T07:56:28;9.63;;;5.05;;
18340;SDS011;9296;48.084;16.352;2022-08-19T07:58:55;5.88;;;4.93;;
18340;SDS011;9296;48.084;16.352;2022-08-19T08:01:24;6.47;;;4.88;;
18340;SDS011;9296;48.084;16.352;2022-08-19T08:03:53;7.65;;;4.72;;
18340;SDS011;9296;48.084;16.352;2022-08-19T08:06:39;5.63;;;5.07;;
18340;SDS011;9296;48.084;16.352;2022-08-19T08:09:25;7.50;;;4.60;;
18340;SDS011;9296;48.084;16.352;2022-08-19T08:11:53;5.43;;;4.70;;
18340;SDS011;9296;48.084;16.352;2022-08-19T08:14:24;5.35;;;4.53;;
18340;SDS011;9296;48.084;16.352;2022-08-19T08:16:52;5.43;;;4.90;;
18340;SDS011;9296;48.084;16.352;2022-08-19T08:19:20;6.97;;;5.10;;
18340;SDS011;9296;48.084;16.352;2022-08-19T08:21:51;6.13;;;4.47;;
18340;SDS011;9296;48.084;16.352;2022-08-19T08:24:18;7.53;;;4.60;;
18340;SDS011;9296;48.084;16.352;2022-08-19T08:26:46;4.95;;;4.53;;
18340;SDS011;9296;48.084;16.352;2022-08-19T08:29:13;5.38;;;4.63;;
18340;SDS011;9296;48.084;16.352;2022-08-19T08:31:41;6.55;;;4.80;;
18340;SDS011;9296;48.084;16.352;2022-08-19T08:34:09;7.55;;;4.93;;
18340;SDS011;9296;48.084;16.352;2022-08-19T08:36:37;6.63;;;4.65;;
18340;SDS011;9296;48.084;16.352;2022-08-19T08:39:08;6.93;;;5.38;;
18340;SDS011;9296;48.084;16.352;2022-08-19T08:41:37;6.47;;;4.80;;
18340;SDS011;9296;48.084;16.352;2022-08-19T08:44:11;6.95;;;4.53;;
18340;SDS011;9296;48.084;16.352;2022-08-19T08:46:42;5.93;;;5.13;;
18340;SDS011;9296;48.084;16.352;2022-08-19T08:49:15;6.47;;;4.68;;
18340;SDS011;9296;48.084;16.352;2022-08-19T08:51:46;7.13;;;5.00;;
18340;SDS011;9296;48.084;16.352;2022-08-19T08:54:17;5.28;;;4.78;;
18340;SDS011;9296;48.084;16.352;2022-08-19T08:56:46;5.88;;;4.32;;
18340;SDS011;9296;48.084;16.352;2022-08-19T08:59:16;7.82;;;4.97;;
18340;SDS011;9296;48.084;16.352;2022-08-19T09:01:46;5.93;;;4.70;;
18340;SDS011;9296;48.084;16.352;2022-08-19T09:04:13;5.93;;;4.43;;
18340;SDS011;9296;48.084;16.352;2022-08-19T09:06:43;5.53;;;4.53;;
18340;SDS011;9296;48.084;16.352;2022-08-19T09:09:14;6.30;;;5.05;;
18340;SDS011;9296;48.084;16.352;2022-08-19T09:11:47;6.55;;;4.35;;
18340;SDS011;9296;48.084;16.352;2022-08-19T09:14:18;7.30;;;4.65;;
18340;SDS011;9296;48.084;16.352;2022-08-19T09:16:47;5.20;;;4.40;;
18340;SDS011;9296;48.084;16.352;2022-08-19T09:19:16;7.75;;;4.93;;
18340;SDS011;9296;48.084;16.352;2022-08-19T09:21:43;9.05;;;4.38;;
18340;SDS011;9296;48.084;16.352;2022-08-19T09:24:11;7.43;;;4.78;;
18340;SDS011;9296;48.084;16.352;2022-08-19T09:26:38;8.65;;;4.93;;
18340;SDS011;9296;48.084;16.352;2022-08-19T09:29:09;6.53;;;4.75;;
18340;SDS011;9296;48.084;16.352;2022-08-19T09:31:36;10.38;;;5.10;;
18340;SDS011;9296;48.084;16.352;2022-08-19T09:34:03;6.78;;;4.72;;
18340;SDS011;9296;48.084;16.352;2022-08-19T09:36:31;6.63;;;4.72;;
18340;SDS011;9296;48.084;16.352;2022-08-19T09:39:01;9.35;;;4.93;;
18340;SDS011;9296;48.084;16.352;2022-08-19T09:41:28;7.75;;;4.72;;
18340;SDS011;9296;48.084;16.352;2022-08-19T09:43:56;6.47;;;4.20;;
18340;SDS011;9296;48.084;16.352;2022-08-19T09:46:26;9.48;;;4.40;;
18340;SDS011;9296;48.084;16.352;2022-08-19T09:48:54;6.38;;;4.45;;
18340;SDS011;9296;48.084;16.352;2022-08-19T09:51:24;7.55;;;4.60;;
18340;SDS011;9296;48.084;16.352;2022-08-19T09:53:53;8.35;;;4.43;;
18340;SDS011;9296;48.084;16.352;2022-08-19T09:56:21;9.63;;;8.43;;
18340;SDS011;9296;48.084;16.352;2022-08-19T09:58:48;9.02;;;4.82;;
18340;SDS011;9296;48.084;16.352;2022-08-19T10:01:16;5.88;;;4.78;;
18340;SDS011;9296;48.084;16.352;2022-08-19T10:03:46;9.13;;;5.00;;
18340;SDS011;9296;48.084;16.352;2022-08-19T10:06:14;8.80;;;4.85;;
18340;SDS011;9296;48.084;16.352;2022-08-19T10:08:41;9.35;;;5.00;;
18340;SDS011;9296;48.084;16.352;2022-08-19T10:11:09;11.63;;;5.15;;
18340;SDS011;9296;48.084;16.352;2022-08-19T10:13:36;8.15;;;4.57;;
18340;SDS011;9296;48.084;16.352;2022-08-19T10:16:05;8.43;;;4.88;;
18340;SDS011;9296;48.084;16.352;2022-08-19T10:18:32;8.63;;;5.20;;
18340;SDS011;9296;48.084;16.352;2022-08-19T10:21:05;9.98;;;4.72;;
18340;SDS011;9296;48.084;16.352;2022-08-19T10:23:34;7.55;;;5.47;;
18340;SDS011;9296;48.084;16.352;2022-08-19T10:26:03;8.85;;;4.97;;
18340;SDS011;9296;48.084;16.352;2022-08-19T10:28:31;8.00;;;4.72;;
18340;SDS011;9296;48.084;16.352;2022-08-19T10:31:05;8.02;;;5.10;;
18340;SDS011;9296;48.084;16.352;2022-08-19T10:33:33;6.60;;;4.72;;
18340;SDS011;9296;48.084;16.352;2022-08-19T10:36:00;11.88;;;5.00;;
18340;SDS011;9296;48.084;16.352;2022-08-19T10:38:29;9.77;;;4.70;;
18340;SDS011;9296;48.084;16.352;2022-08-19T10:40:56;14.00;;;5.25;;
18340;SDS011;9296;48.084;16.352;2022-08-19T10:43:23;8.60;;;4.40;;
18340;SDS011;9296;48.084;16.352;2022-08-19T10:45:54;9.20;;;4.60;;
18340;SDS011;9296;48.084;16.352;2022-08-19T10:48:24;13.40;;;4.68;;
18340;SDS011;9296;48.084;16.352;2022-08-19T10:50:51;8.88;;;4.65;;
18340;SDS011;9296;48.084;16.352;2022-08-19T10:53:37;11.57;;;4.90;;
18340;SDS011;9296;48.084;16.352;2022-08-19T10:56:05;9.70;;;5.50;;
18340;SDS011;9296;48.084;16.352;2022-08-19T10:58:49;13.10;;;5.03;;
18340;SDS011;9296;48.084;16.352;2022-08-19T11:01:17;11.55;;;5.40;;
18340;SDS011;9296;48.084;16.352;2022-08-19T11:03:45;11.02;;;5.15;;
18340;SDS011;9296;48.084;16.352;2022-08-19T11:06:12;13.93;;;5.30;;
18340;SDS011;9296;48.084;16.352;2022-08-19T11:08:41;9.77;;;4.68;;
18340;SDS011;9296;48.084;16.352;2022-08-19T11:11:10;9.80;;;4.85;;
18340;SDS011;9296;48.084;16.352;2022-08-19T11:13:38;11.32;;;4.93;;
18340;SDS011;9296;48.084;16.352;2022-08-19T11:19:10;14.02;;;4.53;;
18340;SDS011;9296;48.084;16.352;2022-08-19T11:21:40;10.05;;;4.72;;
18340;SDS011;9296;48.084;16.352;2022-08-19T11:24:09;9.63;;;4.40;;
18340;SDS011;9296;48.084;16.352;2022-08-19T11:26:38;11.18;;;4.30;;
18340;SDS011;9296;48.084;16.352;2022-08-19T11:29:06;12.65;;;5.03;;
18340;SDS011;9296;48.084;16.352;2022-08-19T11:31:36;12.93;;;4.28;;
18340;SDS011;9296;48.084;16.352;2022-08-19T11:34:05;15.68;;;3.97;;
18340;SDS011;9296;48.084;16.352;2022-08-19T11:36:33;14.90;;;4.20;;
18340;SDS011;9296;48.084;16.352;2022-08-19T11:39:01;14.02;;;4.22;;
18340;SDS011;9296;48.084;16.352;2022-08-19T11:41:30;16.67;;;4.82;;
18340;SDS011;9296;48.084;16.352;2022-08-19T11:43:57;16.42;;;4.90;;
18340;SDS011;9296;48.084;16.352;2022-08-19T11:46:24;18.75;;;4.70;;
18340;SDS011;9296;48.084;16.352;2022-08-19T11:48:54;15.52;;;4.30;;
18340;SDS011;9296;48.084;16.352;2022-08-19T11:51:22;15.63;;;4.32;;
18340;SDS011;9296;48.084;16.352;2022-08-19T11:53:50;12.60;;;4.57;;
18340;SDS011;9296;48.084;16.352;2022-08-19T11:56:18;16.88;;;4.15;;
18340;SDS011;9296;48.084;16.352;2022-08-19T11:58:47;11.10;;;4.20;;
18340;SDS011;9296;48.084;16.352;2022-08-19T12:01:32;14.63;;;4.32;;
18340;SDS011;9296;48.084;16.352;2022-08-19T12:03:59;12.00;;;4.68;;
18340;SDS011;9296;48.084;16.352;2022-08-19T12:06:30;13.95;;;4.38;;
18340;SDS011;9296;48.084;16.352;2022-08-19T12:09:00;15.60;;;4.40;;
18340;SDS011;9296;48.084;16.352;2022-08-19T12:11:27;15.45;;;5.00;;
18340;SDS011;9296;48.084;16.352;2022-08-19T12:13:56;11.82;;;4.63;;
18340;SDS011;9296;48.084;16.352;2022-08-19T12:16:25;15.70;;;5.13;;
18340;SDS011;9296;48.084;16.352;2022-08-19T12:18:52;12.35;;;5.25;;
18340;SDS011;9296;48.084;16.352;2022-08-19T12:21:22;11.93;;;5.32;;
18340;SDS011;9296;48.084;16.352;2022-08-19T12:23:50;12.63;;;5.18;;
18340;SDS011;9296;48.084;16.352;2022-08-19T12:26:18;8.77;;;4.68;;
18340;SDS011;9296;48.084;16.352;2022-08-19T12:28:45;12.55;;;5.65;;
18340;SDS011;9296;48.084;16.352;2022-08-19T12:34:18;14.13;;;4.88;;
18340;SDS011;9296;48.084;16.352;2022-08-19T12:36:45;17.10;;;5.60;;
18340;SDS011;9296;48.084;16.352;2022-08-19T12:39:14;17.60;;;5.32;;
18340;SDS011;9296;48.084;16.352;2022-08-19T12:41:41;10.85;;;5.00;;
18340;SDS011;9296;48.084;16.352;2022-08-19T12:44:08;12.77;;;4.82;;
18340;SDS011;9296;48.084;16.352;2022-08-19T12:49:42;14.00;;;4.88;;
18340;SDS011;9296;48.084;16.352;2022-08-19T12:52:10;15.43;;;4.90;;
18340;SDS011;9296;48.084;16.352;2022-08-19T12:54:40;19.35;;;5.55;;
18340;SDS011;9296;48.084;16.352;2022-08-19T12:57:08;13.30;;;5.38;;
18340;SDS011;9296;48.084;16.352;2022-08-19T12:59:36;11.98;;;4.70;;
18340;SDS011;9296;48.084;16.352;2022-08-19T13:02:03;15.77;;;5.35;;
18340;SDS011;9296;48.084;16.352;2022-08-19T13:04:31;13.05;;;4.60;;
18340;SDS011;9296;48.084;16.352;2022-08-19T13:07:01;13.07;;;4.88;;
18340;SDS011;9296;48.084;16.352;2022-08-19T13:09:29;16.13;;;4.60;;
18340;SDS011;9296;48.084;16.352;2022-08-19T13:11:56;13.23;;;4.50;;
18340;SDS011;9296;48.084;16.352;2022-08-19T13:14:23;17.92;;;4.90;;
18340;SDS011;9296;48.084;16.352;2022-08-19T13:17:10;21.45;;;5.43;;
18340;SDS011;9296;48.084;16.352;2022-08-19T13:19:38;14.02;;;4.70;;
18340;SDS011;9296;48.084;16.352;2022-08-19T13:22:07;16.23;;;5.70;;
18340;SDS011;9296;48.084;16.352;2022-08-19T13:24:34;10.95;;;4.85;;
18340;SDS011;9296;48.084;16.352;2022-08-19T13:27:02;14.07;;;5.32;;
18340;SDS011;9296;48.084;16.352;2022-08-19T13:29:30;11.57;;;5.38;;
18340;SDS011;9296;48.084;16.352;2022-08-19T13:35:18;14.02;;;5.90;;
18340;SDS011;9296;48.084;16.352;2022-08-19T13:37:47;12.20;;;4.93;;
18340;SDS011;9296;48.084;16.352;2022-08-19T13:40:15;13.55;;;5.22;;
18340;SDS011;9296;48.084;16.352;2022-08-19T13:42:44;13.43;;;5.47;;
18340;SDS011;9296;48.084;16.352;2022-08-19T13:45:12;14.95;;;5.38;;
18340;SDS011;9296;48.084;16.352;2022-08-19T13:47:40;12.35;;;5.22;;
18340;SDS011;9296;48.084;16.352;2022-08-19T13:50:09;14.82;;;4.97;;
18340;SDS011;9296;48.084;16.352;2022-08-19T13:52:36;13.02;;;5.00;;
18340;SDS011;9296;48.084;16.352;2022-08-19T13:55:06;14.10;;;5.03;;
18340;SDS011;9296;48.084;16.352;2022-08-19T13:57:33;11.80;;;4.82;;
18340;SDS011;9296;48.084;16.352;2022-08-19T14:00:01;12.07;;;4.70;;
18340;SDS011;9296;48.084;16.352;2022-08-19T14:02:28;12.32;;;5.03;;
18340;SDS011;9296;48.084;16.352;2022-08-19T14:04:55;16.70;;;5.30;;
18340;SDS011;9296;48.084;16.352;2022-08-19T14:07:22;12.10;;;4.72;;
18340;SDS011;9296;48.084;16.352;2022-08-19T14:09:49;11.80;;;4.40;;
18340;SDS011;9296;48.084;16.352;2022-08-19T14:12:22;14.80;;;4.32;;
18340;SDS011;9296;48.084;16.352;2022-08-19T14:14:49;12.38;;;4.43;;
18340;SDS011;9296;48.084;16.352;2022-08-19T14:17:16;14.23;;;4.30;;
18340;SDS011;9296;48.084;16.352;2022-08-19T14:19:44;13.00;;;4.32;;
18340;SDS011;9296;48.084;16.352;2022-08-19T14:22:11;12.57;;;4.22;;
18340;SDS011;9296;48.084;16.352;2022-08-19T14:24:38;12.77;;;4.53;;
18340;SDS011;9296;48.084;16.352;2022-08-19T14:27:05;16.48;;;4.63;;
18340;SDS011;9296;48.084;16.352;2022-08-19T14:29:34;10.82;;;3.80;;
18340;SDS011;9296;48.084;16.352;2022-08-19T14:35:05;9.48;;;3.90;;
18340;SDS011;9296;48.084;16.352;2022-08-19T14:37:33;11.35;;;3.40;;
18340;SDS011;9296;48.084;16.352;2022-08-19T14:40:01;7.00;;;3.50;;
18340;SDS011;9296;48.084;16.352;2022-08-19T14:42:28;8.15;;;3.28;;
18340;SDS011;9296;48.084;16.352;2022-08-19T14:44:58;10.52;;;3.50;;
18340;SDS011;9296;48.084;16.352;2022-08-19T14:48:01;8.40;;;3.20;;
18340;SDS011;9296;48.084;16.352;2022-08-19T14:50:29;9.50;;;3.17;;
18340;SDS011;9296;48.084;16.352;2022-08-19T14:52:59;10.10;;;3.33;;
18340;SDS011;9296;48.084;16.352;2022-08-19T14:55:28;12.13;;;3.33;;
18340;SDS011;9296;48.084;16.352;2022-08-19T14:57:55;8.30;;;3.15;;
18340;SDS011;9296;48.084;16.352;2022-08-19T15:03:27;9.85;;;3.20;;
18340;SDS011;9296;48.084;16.352;2022-08-19T15:05:55;11.27;;;3.55;;
18340;SDS011;9296;48.084;16.352;2022-08-19T15:08:22;7.70;;;2.90;;
18340;SDS011;9296;48.084;16.352;2022-08-19T15:10:50;8.82;;;3.10;;
18340;SDS011;9296;48.084;16.352;2022-08-19T15:13:17;8.75;;;2.70;;
18340;SDS011;9296;48.084;16.352;2022-08-19T15:19:08;9.02;;;2.35;;